createdAt,value
2017-11-29T00:00:16.498Z,0
2017-11-29T00:01:26.563Z,0
2017-11-29T00:02:38.077Z,0
2017-11-29T00:03:48.908Z,0
2017-11-29T00:04:59.814Z,0
2017-11-29T00:06:10.483Z,0
2017-11-29T00:07:20.784Z,0
2017-11-29T00:08:31.500Z,0
2017-11-29T00:09:43.482Z,0
2017-11-29T00:10:53.511Z,0
2017-11-29T00:12:05.205Z,0
2017-11-29T00:13:15.432Z,0
2017-11-29T00:14:26.185Z,0
2017-11-29T00:15:37.601Z,0
2017-11-29T00:16:48.123Z,0
2017-11-29T00:17:58.811Z,0
2017-11-29T00:19:09.612Z,0
2017-11-29T00:20:19.972Z,0
2017-11-29T00:21:30.480Z,0
2017-11-29T00:22:43.450Z,0
2017-11-29T00:23:53.758Z,0
2017-11-29T00:25:04.680Z,0
2017-11-29T00:26:16.916Z,0
2017-11-29T00:27:27.417Z,0
2017-11-29T00:28:40.181Z,0
2017-11-29T00:29:51.566Z,0
2017-11-29T00:31:02.477Z,0
2017-11-29T00:32:13.925Z,0
2017-11-29T00:33:24.209Z,0
2017-11-29T00:34:34.494Z,0
2017-11-29T00:35:44.844Z,0
2017-11-29T00:36:55.166Z,0
2017-11-29T00:38:06.729Z,0
2017-11-29T00:39:17.019Z,0
2017-11-29T00:40:28.377Z,0
2017-11-29T00:41:38.438Z,0
2017-11-29T00:42:50.292Z,0
2017-11-29T00:44:00.649Z,0
2017-11-29T00:45:10.775Z,0
2017-11-29T00:46:22.896Z,0
2017-11-29T00:47:34.036Z,0
2017-11-29T00:48:44.642Z,0
2017-11-29T00:49:54.918Z,0
2017-11-29T00:51:05.204Z,0
2017-11-29T00:52:15.805Z,0
2017-11-29T00:53:26.893Z,0
2017-11-29T00:54:38.145Z,0
2017-11-29T00:55:48.421Z,0
2017-11-29T00:56:58.794Z,0
2017-11-29T00:58:09.294Z,0
2017-11-29T00:59:20.114Z,0
2017-11-29T01:00:30.192Z,0
2017-11-29T01:01:40.273Z,0
2017-11-29T01:02:50.309Z,0
2017-11-29T01:04:00.925Z,0
2017-11-29T01:05:11.248Z,0
2017-11-29T01:06:21.700Z,0
2017-11-29T01:07:31.698Z,0
2017-11-29T01:08:42.019Z,0
2017-11-29T01:09:52.564Z,0
2017-11-29T01:11:02.557Z,0
2017-11-29T01:12:12.837Z,0
2017-11-29T01:13:23.368Z,0
2017-11-29T01:14:33.506Z,0
2017-11-29T01:15:43.865Z,0
2017-11-29T01:16:53.859Z,0
2017-11-29T01:18:04.240Z,0
2017-11-29T01:19:14.436Z,0
2017-11-29T01:20:24.765Z,0
2017-11-29T01:21:35.528Z,0
2017-11-29T01:22:46.550Z,0
2017-11-29T01:23:57.958Z,0
2017-11-29T01:25:08.887Z,0
2017-11-29T01:26:20.338Z,0
2017-11-29T01:27:30.834Z,0
2017-11-29T01:28:41.536Z,0
2017-11-29T01:29:51.950Z,0
2017-11-29T01:31:02.445Z,0
2017-11-29T01:32:12.713Z,0
2017-11-29T01:33:23.250Z,0
2017-11-29T01:34:33.833Z,0
2017-11-29T01:35:44.014Z,0
2017-11-29T01:36:53.799Z,0
2017-11-29T01:38:04.038Z,0
2017-11-29T01:39:15.107Z,0
2017-11-29T01:40:25.234Z,0
2017-11-29T01:41:35.515Z,0
2017-11-29T01:42:45.649Z,0
2017-11-29T01:43:56.179Z,0
2017-11-29T01:45:07.214Z,0
2017-11-29T01:46:19.107Z,0
2017-11-29T01:47:30.516Z,0
2017-11-29T01:48:40.538Z,0
2017-11-29T01:49:51.230Z,0
2017-11-29T01:51:01.816Z,0
2017-11-29T01:52:12.134Z,0
2017-11-29T01:53:22.866Z,0
2017-11-29T01:54:34.047Z,0
2017-11-29T01:55:44.383Z,0
2017-11-29T01:56:55.148Z,0
2017-11-29T01:58:05.432Z,0
2017-11-29T01:59:16.022Z,0
2017-11-29T02:00:29.208Z,0
2017-11-29T02:01:40.913Z,0
2017-11-29T02:02:52.421Z,0
2017-11-29T02:04:02.712Z,0
2017-11-29T02:05:13.269Z,0
2017-11-29T02:06:24.186Z,0
2017-11-29T02:07:34.517Z,0
2017-11-29T02:08:44.849Z,0
2017-11-29T02:09:54.879Z,0
2017-11-29T02:11:05.400Z,0
2017-11-29T02:12:15.913Z,0
2017-11-29T02:13:26.242Z,0
2017-11-29T02:14:36.526Z,0
2017-11-29T02:15:46.825Z,0
2017-11-29T02:16:57.031Z,0
2017-11-29T02:18:07.665Z,0
2017-11-29T02:19:17.933Z,0
2017-11-29T02:20:28.224Z,0
2017-11-29T02:21:38.953Z,0
2017-11-29T02:22:49.229Z,0
2017-11-29T02:24:00.352Z,0
2017-11-29T02:25:11.456Z,0
2017-11-29T02:26:21.792Z,0
2017-11-29T02:27:32.473Z,0
2017-11-29T02:28:43.561Z,0
2017-11-29T02:29:55.198Z,0
2017-11-29T02:31:05.575Z,0
2017-11-29T02:32:16.309Z,0
2017-11-29T02:33:28.027Z,0
2017-11-29T02:34:39.073Z,0
2017-11-29T02:35:49.647Z,0
2017-11-29T02:37:00.175Z,0
2017-11-29T02:38:10.459Z,0
2017-11-29T02:39:21.046Z,0
2017-11-29T02:40:31.324Z,0
2017-11-29T02:41:41.618Z,0
2017-11-29T02:42:52.166Z,0
2017-11-29T02:44:02.438Z,0
2017-11-29T02:45:12.980Z,0
2017-11-29T02:46:23.601Z,0
2017-11-29T02:47:35.113Z,0
2017-11-29T02:48:45.433Z,0
2017-11-29T02:49:55.755Z,0
2017-11-29T02:51:06.036Z,0
2017-11-29T02:52:16.437Z,0
2017-11-29T02:53:26.737Z,0
2017-11-29T02:54:37.279Z,0
2017-11-29T02:55:48.189Z,0
2017-11-29T02:56:58.401Z,0
2017-11-29T02:58:08.759Z,0
2017-11-29T02:59:18.751Z,0
2017-11-29T03:00:29.286Z,0
2017-11-29T03:01:40.222Z,0
2017-11-29T03:02:50.605Z,0
2017-11-29T03:04:00.891Z,0
2017-11-29T03:05:11.139Z,0
2017-11-29T03:06:21.088Z,0
2017-11-29T03:07:31.389Z,0
2017-11-29T03:08:41.655Z,0
2017-11-29T03:09:51.950Z,0
2017-11-29T03:11:01.989Z,0
2017-11-29T03:12:11.991Z,0
2017-11-29T03:13:22.275Z,0
2017-11-29T03:14:32.550Z,0
2017-11-29T03:15:42.815Z,0
2017-11-29T03:16:53.084Z,0
2017-11-29T03:18:02.920Z,0
2017-11-29T03:19:13.839Z,0
2017-11-29T03:20:23.725Z,0
2017-11-29T03:21:33.748Z,0
2017-11-29T03:22:44.041Z,0
2017-11-29T03:23:53.995Z,0
2017-11-29T03:25:04.515Z,0
2017-11-29T03:26:14.458Z,0
2017-11-29T03:27:24.737Z,0
2017-11-29T03:28:35.203Z,0
2017-11-29T03:29:44.954Z,0
2017-11-29T03:30:55.330Z,0
2017-11-29T03:32:05.652Z,0
2017-11-29T03:33:15.952Z,0
2017-11-29T03:34:26.275Z,0
2017-11-29T03:35:36.541Z,0
2017-11-29T03:36:46.831Z,0
2017-11-29T03:37:56.944Z,0
2017-11-29T03:39:07.220Z,0
2017-11-29T03:40:17.257Z,0
2017-11-29T03:41:27.571Z,0
2017-11-29T03:42:37.938Z,0
2017-11-29T03:43:47.742Z,0
2017-11-29T03:44:58.080Z,0
2017-11-29T03:46:08.115Z,0
2017-11-29T03:47:18.127Z,0
2017-11-29T03:48:28.006Z,0
2017-11-29T03:49:38.276Z,0
2017-11-29T03:50:48.359Z,0
2017-11-29T03:51:58.697Z,0
2017-11-29T03:53:09.049Z,0
2017-11-29T03:54:19.301Z,0
2017-11-29T03:55:29.264Z,0
2017-11-29T03:56:39.974Z,0
2017-11-29T03:57:50.107Z,0
2017-11-29T03:59:00.413Z,0
2017-11-29T04:00:10.352Z,0
2017-11-29T04:01:20.363Z,0
2017-11-29T04:02:30.389Z,0
2017-11-29T04:03:40.900Z,0
2017-11-29T04:04:51.191Z,0
2017-11-29T04:06:01.461Z,0
2017-11-29T04:07:11.312Z,0
2017-11-29T04:08:21.123Z,0
2017-11-29T04:09:31.029Z,0
2017-11-29T04:10:41.319Z,0
2017-11-29T04:11:51.798Z,0
2017-11-29T04:13:02.080Z,0
2017-11-29T04:14:11.974Z,0
2017-11-29T04:15:21.954Z,0
2017-11-29T04:16:32.021Z,0
2017-11-29T04:17:42.552Z,0
2017-11-29T04:18:52.631Z,0
2017-11-29T04:20:03.173Z,0
2017-11-29T04:21:13.503Z,0
2017-11-29T04:22:23.915Z,0
2017-11-29T04:23:34.183Z,0
2017-11-29T04:24:44.487Z,0
2017-11-29T04:25:54.794Z,0
2017-11-29T04:27:05.340Z,0
2017-11-29T04:28:15.657Z,0
2017-11-29T04:29:25.463Z,0
2017-11-29T04:30:35.530Z,0
2017-11-29T04:31:45.797Z,0
2017-11-29T04:32:56.151Z,0
2017-11-29T04:34:06.736Z,0
2017-11-29T04:35:16.704Z,0
2017-11-29T04:36:26.719Z,0
2017-11-29T04:37:37.195Z,0
2017-11-29T04:38:47.578Z,0
2017-11-29T04:39:57.863Z,0
2017-11-29T04:41:08.182Z,0
2017-11-29T04:42:18.560Z,0
2017-11-29T04:43:28.603Z,0
2017-11-29T04:44:38.630Z,0
2017-11-29T04:45:48.881Z,0
2017-11-29T04:46:58.961Z,0
2017-11-29T04:48:09.097Z,0
2017-11-29T04:49:19.446Z,0
2017-11-29T04:50:29.763Z,0
2017-11-29T04:51:39.813Z,0
2017-11-29T04:52:49.768Z,0
2017-11-29T04:54:00.063Z,0
2017-11-29T04:55:10.101Z,0
2017-11-29T04:56:20.378Z,0
2017-11-29T04:57:30.916Z,0
2017-11-29T04:58:41.252Z,0
2017-11-29T04:59:51.562Z,0
2017-11-29T05:01:01.851Z,0
2017-11-29T05:02:12.143Z,0
2017-11-29T05:03:22.297Z,0
2017-11-29T05:04:32.364Z,0
2017-11-29T05:05:42.611Z,0
2017-11-29T05:06:52.926Z,0
2017-11-29T05:08:03.212Z,0
2017-11-29T05:09:13.481Z,0
2017-11-29T05:10:23.749Z,0
2017-11-29T05:11:33.967Z,0
2017-11-29T05:12:44.391Z,0
2017-11-29T05:13:54.710Z,0
2017-11-29T05:15:04.979Z,0
2017-11-29T05:16:15.260Z,0
2017-11-29T05:17:25.549Z,0
2017-11-29T05:18:35.997Z,0
2017-11-29T05:19:46.284Z,0
2017-11-29T05:20:56.631Z,0
2017-11-29T05:22:06.725Z,0
2017-11-29T05:23:17.043Z,0
2017-11-29T05:24:27.362Z,0
2017-11-29T05:25:37.293Z,0
2017-11-29T05:26:47.235Z,0
2017-11-29T05:27:57.832Z,0
2017-11-29T05:29:08.389Z,0
2017-11-29T05:30:18.724Z,0
2017-11-29T05:31:29.060Z,0
2017-11-29T05:32:39.025Z,0
2017-11-29T05:33:49.372Z,0
2017-11-29T05:34:59.737Z,0
2017-11-29T05:36:09.989Z,0
2017-11-29T05:37:20.260Z,0
2017-11-29T05:38:30.367Z,0
2017-11-29T05:39:40.913Z,0
2017-11-29T05:40:51.360Z,0
2017-11-29T05:42:01.302Z,0
2017-11-29T05:43:12.069Z,0
2017-11-29T05:44:22.396Z,0
2017-11-29T05:45:32.672Z,0
2017-11-29T05:46:42.719Z,0
2017-11-29T05:47:52.733Z,0
2017-11-29T05:49:03.111Z,0
2017-11-29T05:50:13.404Z,0
2017-11-29T05:51:23.795Z,0
2017-11-29T05:52:33.845Z,0
2017-11-29T05:53:44.141Z,0
2017-11-29T05:54:54.481Z,0
2017-11-29T05:56:04.774Z,0
2017-11-29T05:57:15.086Z,0
2017-11-29T05:58:25.411Z,0
2017-11-29T05:59:35.795Z,0
2017-11-29T06:00:46.137Z,0
2017-11-29T06:01:56.445Z,0
2017-11-29T06:03:06.795Z,0
2017-11-29T06:04:17.083Z,0
2017-11-29T06:05:27.354Z,0
2017-11-29T06:06:36.993Z,0
2017-11-29T06:07:47.042Z,0
2017-11-29T06:08:57.407Z,0
2017-11-29T06:10:07.765Z,0
2017-11-29T06:11:17.813Z,0
2017-11-29T06:12:28.325Z,0
2017-11-29T06:13:38.324Z,0
2017-11-29T06:14:48.660Z,0
2017-11-29T06:15:58.896Z,0
2017-11-29T06:17:09.183Z,0
2017-11-29T06:18:19.700Z,0
2017-11-29T06:19:29.702Z,0
2017-11-29T06:20:39.911Z,4
2017-11-29T06:21:50.223Z,4
2017-11-29T06:23:00.582Z,0
2017-11-29T06:24:10.937Z,4
2017-11-29T06:25:21.276Z,4
2017-11-29T06:26:31.085Z,8
2017-11-29T06:27:41.092Z,4
2017-11-29T06:28:50.862Z,8
2017-11-29T06:30:01.155Z,8
2017-11-29T06:31:11.465Z,8
2017-11-29T06:32:21.824Z,12
2017-11-29T06:33:32.187Z,12
2017-11-29T06:34:42.473Z,16
2017-11-29T06:35:52.770Z,20
2017-11-29T06:37:03.283Z,24
2017-11-29T06:38:13.555Z,28
2017-11-29T06:39:24.079Z,32
2017-11-29T06:40:34.467Z,36
2017-11-29T06:41:44.781Z,48
2017-11-29T06:42:55.103Z,52
2017-11-29T06:44:05.381Z,60
2017-11-29T06:45:15.694Z,76
2017-11-29T06:46:25.996Z,84
2017-11-29T06:47:35.997Z,96
2017-11-29T06:48:46.567Z,112
2017-11-29T06:49:56.647Z,132
2017-11-29T06:51:06.947Z,144
2017-11-29T06:52:17.101Z,164
2017-11-29T06:53:27.830Z,188
2017-11-29T06:54:37.855Z,208
2017-11-29T06:55:48.248Z,232
2017-11-29T06:56:58.356Z,256
2017-11-29T06:58:08.699Z,284
2017-11-29T06:59:19.109Z,312
2017-11-29T07:00:29.435Z,344
2017-11-29T07:01:39.533Z,372
2017-11-29T07:02:49.445Z,404
2017-11-29T07:04:00.062Z,436
2017-11-29T07:05:09.466Z,468
2017-11-29T07:06:19.512Z,504
2017-11-29T07:07:29.606Z,536
2017-11-29T07:08:39.930Z,576
2017-11-29T07:09:49.986Z,612
2017-11-29T07:11:00.291Z,652
2017-11-29T07:12:10.547Z,696
2017-11-29T07:13:20.845Z,736
2017-11-29T07:14:31.157Z,776
2017-11-29T07:15:41.200Z,820
2017-11-29T07:16:51.115Z,860
2017-11-29T07:18:01.423Z,908
2017-11-29T07:19:11.768Z,956
2017-11-29T07:20:22.095Z,1000
2017-11-29T07:21:32.162Z,1052
2017-11-29T07:22:42.330Z,1104
2017-11-29T07:23:52.224Z,1148
2017-11-29T07:25:02.388Z,1200
2017-11-29T07:26:12.399Z,1252
2017-11-29T07:27:22.773Z,1296
2017-11-29T07:28:33.089Z,1344
2017-11-29T07:29:42.997Z,1396
2017-11-29T07:30:53.172Z,1444
2017-11-29T07:32:03.174Z,1496
2017-11-29T07:33:12.973Z,1548
2017-11-29T07:34:23.434Z,1600
2017-11-29T07:35:33.122Z,1640
2017-11-29T07:36:43.153Z,1696
2017-11-29T07:37:53.474Z,1756
2017-11-29T07:39:03.788Z,1796
2017-11-29T07:40:14.079Z,1840
2017-11-29T07:41:24.404Z,1876
2017-11-29T07:42:34.727Z,1928
2017-11-29T07:43:45.038Z,1984
2017-11-29T07:44:55.046Z,2036
2017-11-29T07:46:05.142Z,2068
2017-11-29T07:47:15.446Z,2096
2017-11-29T07:48:25.821Z,2088
2017-11-29T07:49:36.190Z,2028
2017-11-29T07:50:46.500Z,2000
2017-11-29T07:51:56.807Z,2064
2017-11-29T07:53:07.086Z,2168
2017-11-29T07:54:17.113Z,2260
2017-11-29T07:55:27.410Z,2328
2017-11-29T07:56:38.440Z,2416
2017-11-29T07:57:48.822Z,2484
2017-11-29T07:58:59.348Z,2540
2017-11-29T08:00:09.914Z,2608
2017-11-29T08:01:20.832Z,2672
2017-11-29T08:02:30.862Z,2728
2017-11-29T08:03:41.288Z,2760
2017-11-29T08:04:51.562Z,2788
2017-11-29T08:06:01.844Z,2848
2017-11-29T08:07:12.123Z,2904
2017-11-29T08:08:22.414Z,2952
2017-11-29T08:09:33.714Z,3056
2017-11-29T08:10:44.223Z,3140
2017-11-29T08:11:54.772Z,3196
2017-11-29T08:13:04.830Z,3264
2017-11-29T08:14:14.891Z,3356
2017-11-29T08:15:24.975Z,3476
2017-11-29T08:16:35.233Z,3580
2017-11-29T08:17:45.503Z,3668
2017-11-29T08:18:55.833Z,3720
2017-11-29T08:20:05.869Z,3804
2017-11-29T08:21:16.130Z,3868
2017-11-29T08:22:26.427Z,3932
2017-11-29T08:23:36.460Z,3980
2017-11-29T08:24:46.796Z,4056
2017-11-29T08:25:56.710Z,4140
2017-11-29T08:27:07.036Z,4192
2017-11-29T08:28:16.981Z,4260
2017-11-29T08:29:27.245Z,4236
2017-11-29T08:30:37.271Z,4232
2017-11-29T08:31:47.610Z,4256
2017-11-29T08:32:57.890Z,4392
2017-11-29T08:34:08.174Z,4520
2017-11-29T08:35:18.457Z,4564
2017-11-29T08:36:28.542Z,4560
2017-11-29T08:37:38.882Z,4548
2017-11-29T08:38:49.317Z,4732
2017-11-29T08:39:59.308Z,4768
2017-11-29T08:41:09.644Z,4744
2017-11-29T08:42:20.175Z,4888
2017-11-29T08:43:30.217Z,4932
2017-11-29T08:44:40.482Z,4972
2017-11-29T08:45:50.743Z,4992
2017-11-29T08:47:01.061Z,5092
2017-11-29T08:48:11.279Z,5124
2017-11-29T08:49:21.644Z,5164
2017-11-29T08:50:31.983Z,5196
2017-11-29T08:51:42.269Z,5252
2017-11-29T08:52:52.528Z,5292
2017-11-29T08:54:02.848Z,5268
2017-11-29T08:55:13.152Z,5392
2017-11-29T08:56:23.485Z,5456
2017-11-29T08:57:33.246Z,5400
2017-11-29T08:58:43.254Z,5284
2017-11-29T08:59:53.551Z,5288
2017-11-29T09:01:03.619Z,5140
2017-11-29T09:02:13.990Z,5156
2017-11-29T09:03:24.028Z,5000
2017-11-29T09:04:34.359Z,5208
2017-11-29T09:05:44.648Z,5400
2017-11-29T09:06:54.915Z,5408
2017-11-29T09:08:05.478Z,5404
2017-11-29T09:09:15.664Z,5464
2017-11-29T09:10:25.695Z,5552
2017-11-29T09:11:35.768Z,5660
2017-11-29T09:12:46.327Z,5532
2017-11-29T09:13:56.387Z,5384
2017-11-29T09:15:06.409Z,5348
2017-11-29T09:16:16.420Z,5400
2017-11-29T09:17:26.715Z,5512
2017-11-29T09:18:37.049Z,5564
2017-11-29T09:19:47.365Z,5636
2017-11-29T09:20:57.386Z,5696
2017-11-29T09:22:07.402Z,5768
2017-11-29T09:23:17.703Z,5208
2017-11-29T09:24:28.017Z,5136
2017-11-29T09:25:38.026Z,5104
2017-11-29T09:26:48.014Z,5312
2017-11-29T09:27:58.301Z,5356
2017-11-29T09:29:09.135Z,5440
2017-11-29T09:30:19.480Z,5384
2017-11-29T09:31:29.921Z,5816
2017-11-29T09:32:40.279Z,6012
2017-11-29T09:33:50.047Z,6324
2017-11-29T09:35:00.306Z,6460
2017-11-29T09:36:10.664Z,6736
2017-11-29T09:37:21.794Z,6812
2017-11-29T09:38:32.273Z,6940
2017-11-29T09:39:42.554Z,7312
2017-11-29T09:40:52.771Z,7644
2017-11-29T09:42:03.003Z,8076
2017-11-29T09:43:13.499Z,8492
2017-11-29T09:44:23.811Z,8900
2017-11-29T09:45:34.946Z,8960
2017-11-29T09:46:45.260Z,8112
2017-11-29T09:47:55.601Z,10924
2017-11-29T09:49:05.616Z,21056
2017-11-29T09:50:15.916Z,26720
2017-11-29T09:51:25.275Z,25888
2017-11-29T09:52:35.594Z,27648
2017-11-29T09:53:46.105Z,27552
2017-11-29T09:54:56.454Z,25632
2017-11-29T09:56:07.312Z,28160
2017-11-29T09:57:17.605Z,30016
2017-11-29T09:58:28.001Z,31840
2017-11-29T09:59:38.990Z,30016
2017-11-29T10:00:49.331Z,29152
2017-11-29T10:01:59.602Z,30400
2017-11-29T10:03:09.942Z,30144
2017-11-29T10:04:20.305Z,29632
2017-11-29T10:05:30.614Z,31872
2017-11-29T10:06:40.896Z,29472
2017-11-29T10:07:51.202Z,25888
2017-11-29T10:09:01.491Z,29216
2017-11-29T10:10:11.440Z,28064
2017-11-29T10:11:21.721Z,29920
2017-11-29T10:12:33.493Z,31936
2017-11-29T10:13:44.052Z,31904
2017-11-29T10:14:54.520Z,30080
2017-11-29T10:16:04.551Z,31680
2017-11-29T10:17:14.476Z,32416
2017-11-29T10:18:24.803Z,33024
2017-11-29T10:19:35.710Z,32608
2017-11-29T10:20:46.102Z,35552
2017-11-29T10:21:56.388Z,34272
2017-11-29T10:23:06.967Z,35168
2017-11-29T10:24:18.705Z,35744
2017-11-29T10:25:28.738Z,35808
2017-11-29T10:26:39.199Z,35648
2017-11-29T10:27:49.901Z,36896
2017-11-29T10:29:01.615Z,28608
2017-11-29T10:30:12.409Z,15200
2017-11-29T10:31:23.602Z,25024
2017-11-29T10:32:34.269Z,36512
2017-11-29T10:33:44.415Z,38944
2017-11-29T10:34:54.738Z,37504
2017-11-29T10:36:05.266Z,36640
2017-11-29T10:37:15.566Z,36448
2017-11-29T10:38:26.792Z,35904
2017-11-29T10:39:37.944Z,35968
2017-11-29T10:40:48.455Z,36672
2017-11-29T10:41:59.873Z,37536
2017-11-29T10:43:10.183Z,37376
2017-11-29T10:44:21.931Z,36672
2017-11-29T10:45:33.501Z,38592
2017-11-29T10:46:43.860Z,36896
2017-11-29T10:47:54.346Z,39296
2017-11-29T10:49:05.133Z,39520
2017-11-29T10:50:19.058Z,34048
2017-11-29T10:51:29.616Z,31072
2017-11-29T10:52:39.961Z,28800
2017-11-29T10:53:50.269Z,28416
2017-11-29T10:55:00.969Z,29728
2017-11-29T10:56:11.453Z,33152
2017-11-29T10:57:22.353Z,32960
2017-11-29T10:58:33.361Z,33472
2017-11-29T10:59:44.282Z,33344
2017-11-29T11:00:55.506Z,31552
2017-11-29T11:02:05.677Z,31008
2017-11-29T11:03:15.976Z,35936
2017-11-29T11:04:26.345Z,40256
2017-11-29T11:05:36.862Z,37952
2017-11-29T11:06:47.640Z,36672
2017-11-29T11:07:57.929Z,38816
2017-11-29T11:09:07.879Z,39200
2017-11-29T11:10:17.802Z,31648
2017-11-29T11:11:28.190Z,34912
2017-11-29T11:12:38.518Z,35744
2017-11-29T11:13:49.486Z,34528
2017-11-29T11:14:59.716Z,32736
2017-11-29T11:16:09.790Z,34368
2017-11-29T11:17:21.144Z,34496
2017-11-29T11:18:31.464Z,40896
2017-11-29T11:19:41.500Z,40608
2017-11-29T11:20:51.515Z,41152
2017-11-29T11:22:01.962Z,43040
2017-11-29T11:23:12.733Z,41760
2017-11-29T11:24:23.018Z,38240
2017-11-29T11:25:33.364Z,38976
2017-11-29T11:26:43.633Z,41408
2017-11-29T11:27:54.487Z,38080
2017-11-29T11:29:03.871Z,36384
2017-11-29T11:30:14.219Z,37696
2017-11-29T11:31:24.564Z,38080
2017-11-29T11:32:34.882Z,39648
2017-11-29T11:33:45.683Z,38304
2017-11-29T11:34:56.019Z,32896
2017-11-29T11:36:06.440Z,29664
2017-11-29T11:37:16.820Z,27104
2017-11-29T11:38:26.946Z,26528
2017-11-29T11:39:37.101Z,26880
2017-11-29T11:40:47.157Z,26784
2017-11-29T11:41:57.461Z,27104
2017-11-29T11:43:07.888Z,18144
2017-11-29T11:44:18.238Z,25024
2017-11-29T11:45:28.571Z,32864
2017-11-29T11:46:38.693Z,30304
2017-11-29T11:47:48.793Z,25152
2017-11-29T11:48:59.458Z,22496
2017-11-29T11:50:09.784Z,21568
2017-11-29T11:51:20.099Z,19936
2017-11-29T11:52:30.424Z,19104
2017-11-29T11:53:40.826Z,17248
2017-11-29T11:54:50.811Z,18368
2017-11-29T11:56:01.225Z,13488
2017-11-29T11:57:11.534Z,12636
2017-11-29T11:58:21.689Z,9740
2017-11-29T11:59:32.072Z,9440
2017-11-29T12:00:42.421Z,9716
2017-11-29T12:01:52.432Z,8504
2017-11-29T12:03:02.768Z,8156
2017-11-29T12:04:12.832Z,8212
2017-11-29T12:05:23.061Z,11036
2017-11-29T12:06:33.376Z,11636
2017-11-29T12:07:43.919Z,11496
2017-11-29T12:08:54.238Z,11548
2017-11-29T12:10:04.564Z,11444
2017-11-29T12:11:14.860Z,11884
2017-11-29T12:12:25.299Z,12296
2017-11-29T12:13:35.635Z,12628
2017-11-29T12:14:45.924Z,13120
2017-11-29T12:15:56.231Z,13564
2017-11-29T12:17:06.546Z,12880
2017-11-29T12:18:16.805Z,12716
2017-11-29T12:19:26.493Z,12588
2017-11-29T12:20:36.999Z,12536
2017-11-29T12:21:46.641Z,11184
2017-11-29T12:22:56.660Z,10644
2017-11-29T12:24:07.026Z,10204
2017-11-29T12:25:17.328Z,10020
2017-11-29T12:26:27.681Z,9744
2017-11-29T12:27:37.967Z,9152
2017-11-29T12:28:48.275Z,8532
2017-11-29T12:29:58.329Z,7948
2017-11-29T12:31:08.621Z,7392
2017-11-29T12:32:18.698Z,6676
2017-11-29T12:33:28.821Z,6092
2017-11-29T12:34:39.163Z,5792
2017-11-29T12:35:49.516Z,5676
2017-11-29T12:36:59.552Z,5588
2017-11-29T12:38:10.044Z,5536
2017-11-29T12:39:20.599Z,5504
2017-11-29T12:40:30.889Z,5564
2017-11-29T12:41:40.917Z,5972
2017-11-29T12:42:51.033Z,6096
2017-11-29T12:44:01.324Z,6076
2017-11-29T12:45:11.604Z,5996
2017-11-29T12:46:22.006Z,5932
2017-11-29T12:47:32.131Z,5872
2017-11-29T12:48:41.923Z,5832
2017-11-29T12:49:52.000Z,5916
2017-11-29T12:51:02.521Z,5824
2017-11-29T12:52:12.288Z,5696
2017-11-29T12:53:22.048Z,5628
2017-11-29T12:54:32.450Z,5644
2017-11-29T12:55:42.749Z,5696
2017-11-29T12:56:53.109Z,5736
2017-11-29T12:58:03.725Z,5800
2017-11-29T12:59:13.925Z,5964
2017-11-29T13:00:24.239Z,6184
2017-11-29T13:01:34.200Z,6392
2017-11-29T13:02:44.491Z,6496
2017-11-29T13:03:54.584Z,6432
2017-11-29T13:05:04.912Z,6292
2017-11-29T13:06:15.202Z,6076
2017-11-29T13:07:25.562Z,5764
2017-11-29T13:08:35.872Z,5416
2017-11-29T13:09:46.684Z,5092
2017-11-29T13:10:57.037Z,4828
2017-11-29T13:12:07.100Z,4692
2017-11-29T13:13:17.442Z,4660
2017-11-29T13:14:27.469Z,4744
2017-11-29T13:15:37.813Z,4844
2017-11-29T13:16:48.109Z,4864
2017-11-29T13:17:58.411Z,4864
2017-11-29T13:19:08.712Z,4844
2017-11-29T13:20:18.733Z,4844
2017-11-29T13:21:28.888Z,4848
2017-11-29T13:22:39.238Z,4828
2017-11-29T13:23:49.554Z,4784
2017-11-29T13:25:00.192Z,4740
2017-11-29T13:26:10.496Z,4716
2017-11-29T13:27:20.776Z,4684
2017-11-29T13:28:31.185Z,4632
2017-11-29T13:29:41.517Z,4520
2017-11-29T13:30:51.838Z,4292
2017-11-29T13:32:02.192Z,4072
2017-11-29T13:33:12.494Z,3932
2017-11-29T13:34:22.245Z,3876
2017-11-29T13:35:32.599Z,3828
2017-11-29T13:36:42.898Z,3752
2017-11-29T13:37:53.029Z,3672
2017-11-29T13:39:03.329Z,3548
2017-11-29T13:40:13.613Z,3408
2017-11-29T13:41:23.670Z,3248
2017-11-29T13:42:33.610Z,3100
2017-11-29T13:43:44.011Z,2992
2017-11-29T13:44:54.008Z,2948
2017-11-29T13:46:04.306Z,2920
2017-11-29T13:47:14.595Z,2896
2017-11-29T13:48:24.932Z,2864
2017-11-29T13:49:35.277Z,2832
2017-11-29T13:50:45.624Z,2788
2017-11-29T13:51:55.937Z,2748
2017-11-29T13:53:06.294Z,2652
2017-11-29T13:54:16.718Z,2504
2017-11-29T13:55:27.017Z,2288
2017-11-29T13:56:37.322Z,2084
2017-11-29T13:57:47.745Z,1928
2017-11-29T13:58:57.810Z,1844
2017-11-29T14:00:08.212Z,1772
2017-11-29T14:01:18.594Z,1704
2017-11-29T14:02:29.133Z,1608
2017-11-29T14:03:39.062Z,1508
2017-11-29T14:04:49.143Z,1384
2017-11-29T14:05:59.666Z,1260
2017-11-29T14:07:09.856Z,1172
2017-11-29T14:08:20.191Z,1124
2017-11-29T14:09:30.536Z,1072
2017-11-29T14:10:40.832Z,1012
2017-11-29T14:11:50.895Z,960
2017-11-29T14:13:01.482Z,912
2017-11-29T14:14:11.841Z,884
2017-11-29T14:15:22.198Z,876
2017-11-29T14:16:32.503Z,876
2017-11-29T14:17:42.797Z,864
2017-11-29T14:18:53.124Z,852
2017-11-29T14:20:03.447Z,840
2017-11-29T14:21:13.776Z,812
2017-11-29T14:22:24.086Z,772
2017-11-29T14:23:34.383Z,720
2017-11-29T14:24:44.685Z,680
2017-11-29T14:25:55.098Z,648
2017-11-29T14:27:05.436Z,624
2017-11-29T14:28:15.869Z,620
2017-11-29T14:29:26.509Z,616
2017-11-29T14:30:36.298Z,620
2017-11-29T14:31:46.536Z,628
2017-11-29T14:32:56.604Z,628
2017-11-29T14:34:07.154Z,616
2017-11-29T14:35:17.515Z,612
2017-11-29T14:36:28.019Z,600
2017-11-29T14:37:38.324Z,596
2017-11-29T14:38:48.496Z,596
2017-11-29T14:39:58.833Z,596
2017-11-29T14:41:09.125Z,592
2017-11-29T14:42:19.594Z,588
2017-11-29T14:43:29.923Z,588
2017-11-29T14:44:40.253Z,584
2017-11-29T14:45:50.799Z,572
2017-11-29T14:47:01.172Z,556
2017-11-29T14:48:11.220Z,528
2017-11-29T14:49:21.763Z,496
2017-11-29T14:50:31.522Z,468
2017-11-29T14:51:43.812Z,432
2017-11-29T14:52:54.740Z,408
2017-11-29T14:54:05.070Z,380
2017-11-29T14:55:15.790Z,348
2017-11-29T14:56:26.347Z,324
2017-11-29T14:57:36.568Z,296
2017-11-29T14:58:46.457Z,272
2017-11-29T14:59:56.952Z,252
2017-11-29T15:01:07.251Z,232
2017-11-29T15:02:17.721Z,212
2017-11-29T15:03:28.049Z,192
2017-11-29T15:04:38.615Z,168
2017-11-29T15:05:49.352Z,148
2017-11-29T15:07:00.034Z,132
2017-11-29T15:08:10.480Z,116
2017-11-29T15:09:21.057Z,108
2017-11-29T15:10:31.856Z,96
2017-11-29T15:11:42.094Z,92
2017-11-29T15:12:52.688Z,80
2017-11-29T15:14:02.976Z,72
2017-11-29T15:15:13.754Z,60
2017-11-29T15:16:24.046Z,52
2017-11-29T15:17:34.563Z,44
2017-11-29T15:18:45.308Z,44
2017-11-29T15:19:55.862Z,36
2017-11-29T15:21:06.344Z,32
2017-11-29T15:22:16.367Z,24
2017-11-29T15:23:26.647Z,24
2017-11-29T15:24:36.993Z,20
2017-11-29T15:25:47.298Z,16
2017-11-29T15:26:57.740Z,12
2017-11-29T15:28:08.153Z,12
2017-11-29T15:29:18.633Z,12
2017-11-29T15:30:28.618Z,8
2017-11-29T15:31:38.555Z,8
2017-11-29T15:32:49.436Z,8
2017-11-29T15:34:00.069Z,4
2017-11-29T15:35:11.074Z,4
2017-11-29T15:36:21.632Z,4
2017-11-29T15:37:32.432Z,4
2017-11-29T15:38:42.475Z,4
2017-11-29T15:39:52.790Z,0
2017-11-29T15:41:03.153Z,4
2017-11-29T15:42:13.443Z,4
2017-11-29T15:43:23.989Z,0
2017-11-29T15:44:34.066Z,0
2017-11-29T15:45:44.597Z,0
2017-11-29T15:46:55.062Z,0
2017-11-29T15:48:05.409Z,0
2017-11-29T15:49:15.848Z,0
2017-11-29T15:50:26.219Z,0
2017-11-29T15:51:36.288Z,0
2017-11-29T15:52:46.683Z,0
2017-11-29T15:53:57.008Z,0
2017-11-29T15:55:07.296Z,0
2017-11-29T15:56:17.637Z,0
2017-11-29T15:57:28.809Z,0
2017-11-29T15:58:38.853Z,0
2017-11-29T15:59:49.372Z,0
2017-11-29T16:01:00.053Z,0
2017-11-29T16:02:10.142Z,0
2017-11-29T16:03:20.399Z,0
2017-11-29T16:04:31.207Z,0
2017-11-29T16:05:41.235Z,0
2017-11-29T16:06:51.575Z,0
2017-11-29T16:08:02.139Z,0
2017-11-29T16:09:12.457Z,0
2017-11-29T16:10:23.208Z,0
2017-11-29T16:11:33.161Z,0
2017-11-29T16:12:43.093Z,0
2017-11-29T16:13:53.106Z,0
2017-11-29T16:15:03.230Z,0
2017-11-29T16:16:13.689Z,0
2017-11-29T16:17:23.824Z,0
2017-11-29T16:18:33.641Z,0
2017-11-29T16:19:44.401Z,0
2017-11-29T16:20:54.441Z,0